Repto Jimenez, Puerto Rico
Current Conditions -  °F | °C
As of 2:50 PM on Thursday 23 Oct 2014 (Local Time) from TJBQ Reporting Station
Scattered Clouds Scattered Clouds  
Wind Chill: 84°   Ceiling: Unl
Heat Index: 91°   Visibility: 10mi
Dew Point: 73°   Wind: 3mph
Humidity: 70%   Direction: 10°N
Pressure: 29.89"   Gusts: NA
Location:  18.4409°N, 67.1508°W
Report Text: TJBQ 231850Z 01003KT 10SM SCT030 29/23 A2989 RMK RWY08 CLSD - ATIS J
Loading
Personal Weather Stations






























Interactive Weather Map
Tropical Storm Tracking
New forecast layout! Learn more

10-Day Weather Forecast

Advertisements
Track Severe Weather on mobile